Time;durP1;ratioP1;P1;durP2;ratioP2;P2;SDS_P1;SDS_P2;PMS_P1;PMS_P2;Temp;Humidity;BMP_temperature;BMP_pressure;BME280_temperature;BME280_humidity;BME280_pressure;Samples;Min_cycle;Max_cycle;Signal;HPM_P1;HPM_P2
2023/08/09 00:00:53;;;;;;;0.95;0.40;;;12.30;99.90;;;;;;4968328;28;20059;-67
2023/08/09 00:03:19;;;;;;;2.47;0.40;;;12.20;99.90;;;;;;4952229;28;20043;-67
2023/08/09 00:05:45;;;;;;;0.40;0.30;;;12.20;99.90;;;;;;4948347;28;20069;-67
2023/08/09 00:08:11;;;;;;;1.02;0.25;;;12.30;99.90;;;;;;4971033;28;20043;-67
2023/08/09 00:10:36;;;;;;;0.35;0.20;;;12.20;99.90;;;;;;4971092;28;20093;-67
2023/08/09 00:13:03;;;;;;;1.20;0.20;;;12.20;99.90;;;;;;4955224;28;20046;-67
2023/08/09 00:15:29;;;;;;;0.10;0.10;;;12.20;99.90;;;;;;4936044;28;20055;-67
2023/08/09 00:17:57;;;;;;;0.47;0.10;;;12.20;99.90;;;;;;4946036;28;20830;-67
2023/08/09 00:20:23;;;;;;;0.20;0.10;;;12.20;99.90;;;;;;4951835;28;20051;-67
2023/08/09 00:22:49;;;;;;;0.22;0.20;;;12.20;99.90;;;;;;4965054;28;20046;-67
2023/08/09 00:25:15;;;;;;;0.60;0.30;;;12.20;99.90;;;;;;4967481;28;20047;-67
2023/08/09 00:27:42;;;;;;;0.32;0.10;;;12.20;99.90;;;;;;4952573;28;20101;-67
2023/08/09 00:30:11;;;;;;;0.50;0.20;;;12.20;99.90;;;;;;4984086;28;20085;-68
2023/08/09 00:32:39;;;;;;;1.00;0.30;;;12.30;99.90;;;;;;4947366;28;20385;-67
2023/08/09 00:35:05;;;;;;;0.77;0.32;;;12.30;99.90;;;;;;4966460;28;20035;-67
2023/08/09 00:37:31;;;;;;;0.20;0.17;;;12.40;99.90;;;;;;4968655;28;20054;-67
2023/08/09 00:39:56;;;;;;;0.77;0.47;;;12.50;99.90;;;;;;4949612;28;20057;-67
2023/08/09 00:42:25;;;;;;;1.40;0.30;;;12.50;99.90;;;;;;4970479;28;20045;-67
2023/08/09 00:44:51;;;;;;;1.17;0.47;;;12.50;99.90;;;;;;4952760;28;20060;-68
2023/08/09 00:47:18;;;;;;;1.55;0.57;;;12.60;99.90;;;;;;4969481;28;20043;-67
2023/08/09 00:49:45;;;;;;;0.75;0.50;;;12.60;99.90;;;;;;4969184;28;20051;-68
2023/08/09 00:52:11;;;;;;;0.70;0.40;;;12.60;99.90;;;;;;4952367;28;20285;-67
2023/08/09 00:54:39;;;;;;;0.30;0.20;;;12.70;99.90;;;;;;4968807;28;20253;-67
2023/08/09 00:57:06;;;;;;;0.68;0.20;;;12.70;99.90;;;;;;4951780;28;20046;-67
2023/08/09 00:59:32;;;;;;;0.65;0.40;;;12.70;99.90;;;;;;4952103;28;20085;-68
2023/08/09 01:01:58;;;;;;;0.82;0.30;;;12.80;99.90;;;;;;4965546;28;20038;-67
2023/08/09 01:04:24;;;;;;;0.47;0.30;;;12.80;99.90;;;;;;4946686;28;20054;-67
2023/08/09 01:07:06;;;;;;;2.30;0.47;;;12.90;99.90;;;;;;4952183;28;20046;-67
2023/08/09 01:10:09;;;;;;;0.35;0.25;;;12.90;99.90;;;;;;4965094;28;20047;-67
2023/08/09 01:12:41;;;;;;;0.75;0.20;;;12.90;99.90;;;;;;4969934;28;20608;-67
2023/08/09 01:15:08;;;;;;;0.95;0.60;;;12.90;99.90;;;;;;4967928;28;20039;-67
2023/08/09 01:17:36;;;;;;;0.85;0.35;;;12.90;99.90;;;;;;4947161;28;20062;-67
2023/08/09 01:20:07;;;;;;;0.43;0.30;;;12.90;99.90;;;;;;4965003;28;20046;-67
2023/08/09 01:22:35;;;;;;;1.23;0.47;;;12.90;99.90;;;;;;4947721;28;20050;-67
2023/08/09 01:25:06;;;;;;;0.95;0.40;;;13.00;99.90;;;;;;4948171;28;20043;-67
2023/08/09 01:27:32;;;;;;;0.55;0.30;;;12.90;99.90;;;;;;4967663;28;20050;-67
2023/08/09 01:29:59;;;;;;;0.90;0.38;;;13.00;99.90;;;;;;4967120;28;20082;-67
2023/08/09 01:32:25;;;;;;;1.17;0.40;;;13.00;99.90;;;;;;4951172;28;20090;-67
2023/08/09 01:34:52;;;;;;;0.95;0.40;;;13.00;99.90;;;;;;4950714;28;20561;-67
2023/08/09 01:37:46;;;;;;;1.35;0.45;;;12.90;99.90;;;;;;4951216;28;20042;-67
2023/08/09 01:40:12;;;;;;;1.73;0.57;;;12.90;99.90;;;;;;4967480;28;20069;-67
2023/08/09 01:42:42;;;;;;;3.63;0.57;;;12.90;99.90;;;;;;4950128;28;20046;-67
2023/08/09 01:45:12;;;;;;;1.38;0.50;;;12.90;99.90;;;;;;4951676;28;20403;-67
2023/08/09 01:47:40;;;;;;;0.73;0.43;;;12.80;99.90;;;;;;4951601;28;20038;-67
2023/08/09 01:50:15;;;;;;;1.02;0.50;;;12.80;99.90;;;;;;4946784;28;20042;-67
2023/08/09 01:52:41;;;;;;;1.40;0.55;;;12.70;99.90;;;;;;4953068;28;20118;-67
2023/08/09 01:55:07;;;;;;;1.75;0.52;;;12.70;99.90;;;;;;4949816;28;20795;-67
2023/08/09 01:57:33;;;;;;;2.72;0.68;;;12.70;99.90;;;;;;4967643;28;20403;-68
2023/08/09 01:59:59;;;;;;;1.05;0.40;;;12.60;99.90;;;;;;4967207;28;20100;-67
2023/08/09 02:02:25;;;;;;;0.80;0.55;;;12.70;99.90;;;;;;4959835;28;20526;-67
2023/08/09 02:04:50;;;;;;;1.27;0.45;;;12.60;99.90;;;;;;4947075;28;20128;-67
2023/08/09 02:07:16;;;;;;;0.85;0.40;;;12.60;99.90;;;;;;4970001;28;20511;-67
2023/08/09 02:09:42;;;;;;;1.48;0.55;;;12.50;99.90;;;;;;4951705;28;20058;-66
2023/08/09 02:12:07;;;;;;;1.10;0.40;;;12.60;99.90;;;;;;4944472;28;20559;-67
2023/08/09 02:14:33;;;;;;;0.70;0.50;;;12.50;99.90;;;;;;4967904;28;20106;-67
2023/08/09 02:17:02;;;;;;;0.88;0.40;;;12.40;99.90;;;;;;4977133;28;20057;-67
2023/08/09 02:19:28;;;;;;;0.75;0.50;;;12.40;99.90;;;;;;4962879;28;20043;-66
2023/08/09 02:21:54;;;;;;;1.30;0.32;;;12.40;99.90;;;;;;4968487;28;20094;-67
2023/08/09 02:24:21;;;;;;;0.93;0.30;;;12.30;99.90;;;;;;4949807;28;20128;-67
2023/08/09 02:26:47;;;;;;;0.50;0.30;;;12.30;99.90;;;;;;4948108;28;20047;-67
2023/08/09 02:29:13;;;;;;;1.17;0.20;;;12.20;99.90;;;;;;4949200;28;20056;-67
2023/08/09 02:31:40;;;;;;;1.08;0.52;;;12.20;99.90;;;;;;4942360;28;20126;-67
2023/08/09 02:34:06;;;;;;;0.80;0.50;;;12.20;99.90;;;;;;4952566;28;20042;-67
2023/08/09 02:36:32;;;;;;;0.43;0.38;;;12.10;99.90;;;;;;4964531;28;20043;-67
2023/08/09 02:38:58;;;;;;;0.52;0.25;;;12.00;99.90;;;;;;4951755;28;20126;-67
2023/08/09 02:41:24;;;;;;;0.82;0.30;;;12.00;99.90;;;;;;4951603;28;20407;-67
2023/08/09 02:43:50;;;;;;;0.40;0.20;;;12.00;99.90;;;;;;4952317;28;20053;-67
2023/08/09 02:46:16;;;;;;;0.68;0.40;;;11.90;99.90;;;;;;4961846;28;20101;-67
2023/08/09 02:48:41;;;;;;;3.20;0.40;;;11.90;99.90;;;;;;4950158;28;20070;-67
2023/08/09 02:51:07;;;;;;;0.13;0.13;;;11.80;99.90;;;;;;4968943;28;20043;-67
2023/08/09 02:53:55;;;;;;;1.45;0.63;;;11.70;99.90;;;;;;4950190;28;20109;-68
2023/08/09 02:56:21;;;;;;;1.02;0.30;;;11.70;99.90;;;;;;4949216;28;20041;-67
2023/08/09 02:58:47;;;;;;;0.90;0.40;;;11.60;99.90;;;;;;4965002;28;20043;-67
2023/08/09 03:01:13;;;;;;;0.52;0.30;;;11.60;99.90;;;;;;4953570;28;20050;-67
2023/08/09 03:03:38;;;;;;;1.02;0.38;;;11.60;99.90;;;;;;4950736;28;20038;-68
2023/08/09 03:06:05;;;;;;;0.40;0.17;;;11.50;99.90;;;;;;4970449;28;20407;-68
2023/08/09 03:08:31;;;;;;;0.70;0.28;;;11.50;99.90;;;;;;4956505;28;20141;-67
2023/08/09 03:10:57;;;;;;;0.32;0.15;;;11.50;99.90;;;;;;4971556;28;20074;-67
2023/08/09 03:13:23;;;;;;;1.13;0.40;;;11.50;99.90;;;;;;4970624;28;20039;-67
2023/08/09 03:15:48;;;;;;;1.05;0.40;;;11.50;99.90;;;;;;4952131;28;20106;-67
2023/08/09 03:18:14;;;;;;;2.33;0.60;;;11.40;99.90;;;;;;4947653;29;20070;-67
2023/08/09 03:20:40;;;;;;;0.57;0.30;;;11.30;99.90;;;;;;4952368;28;20039;-68
2023/08/09 03:23:08;;;;;;;0.73;0.32;;;11.30;99.90;;;;;;4967381;28;20114;-67
2023/08/09 03:25:35;;;;;;;0.80;0.47;;;11.30;99.90;;;;;;4968965;28;20407;-67
2023/08/09 03:28:00;;;;;;;0.57;0.30;;;11.20;99.90;;;;;;4954407;28;20051;-67
2023/08/09 03:30:26;;;;;;;0.98;0.57;;;11.20;99.90;;;;;;4956401;28;20589;-67
2023/08/09 03:32:52;;;;;;;0.63;0.45;;;11.20;99.90;;;;;;4967540;28;20051;-67
2023/08/09 03:35:17;;;;;;;1.85;0.52;;;11.10;99.90;;;;;;4946435;28;20300;-67
2023/08/09 03:37:43;;;;;;;0.57;0.38;;;11.00;99.90;;;;;;4956150;28;20479;-67
2023/08/09 03:40:12;;;;;;;0.40;0.30;;;11.00;99.90;;;;;;4964213;28;20054;-67
2023/08/09 03:42:40;;;;;;;0.45;0.20;;;10.90;99.90;;;;;;4952230;28;20065;-67
2023/08/09 03:45:06;;;;;;;0.80;0.40;;;10.90;99.90;;;;;;4949743;28;20050;-67
2023/08/09 03:47:32;;;;;;;0.40;0.38;;;10.90;99.90;;;;;;4952616;28;20156;-67
2023/08/09 03:49:59;;;;;;;0.35;0.20;;;10.90;99.90;;;;;;4971933;28;20091;-67
2023/08/09 03:52:24;;;;;;;0.93;0.40;;;10.80;99.90;;;;;;4948646;28;20059;-67
2023/08/09 03:54:52;;;;;;;0.65;0.30;;;10.80;99.90;;;;;;4968480;28;20119;-67
2023/08/09 03:57:19;;;;;;;0.93;0.47;;;10.80;99.90;;;;;;4969927;28;20046;-67
2023/08/09 03:59:44;;;;;;;0.40;0.30;;;10.80;99.90;;;;;;4953536;28;20031;-67
2023/08/09 04:02:11;;;;;;;1.02;0.40;;;10.80;99.90;;;;;;4963698;28;20046;-67
2023/08/09 04:04:37;;;;;;;0.75;0.47;;;10.80;99.90;;;;;;4968163;28;20133;-67
2023/08/09 04:07:02;;;;;;;0.40;0.20;;;10.70;99.90;;;;;;4950370;28;20559;-67
2023/08/09 04:09:28;;;;;;;0.95;0.20;;;10.70;99.90;;;;;;4952490;28;20058;-67
2023/08/09 04:11:54;;;;;;;0.77;0.50;;;10.70;99.90;;;;;;4968474;28;20217;-67
2023/08/09 04:14:20;;;;;;;0.32;0.17;;;10.70;99.90;;;;;;4970512;28;20312;-67
2023/08/09 04:16:46;;;;;;;0.60;0.35;;;10.70;99.90;;;;;;4952589;28;20045;-67
2023/08/09 04:19:12;;;;;;;0.80;0.47;;;10.60;99.90;;;;;;4956173;28;20038;-67
2023/08/09 04:21:37;;;;;;;0.32;0.10;;;10.60;99.90;;;;;;4951011;28;20603;-67
2023/08/09 04:24:04;;;;;;;0.50;0.32;;;10.60;99.90;;;;;;4967772;28;20528;-67
2023/08/09 04:26:30;;;;;;;0.63;0.40;;;10.60;99.90;;;;;;4953081;28;20102;-67
2023/08/09 04:28:56;;;;;;;0.52;0.20;;;10.60;99.90;;;;;;4945309;28;20039;-67
2023/08/09 04:31:21;;;;;;;0.47;0.40;;;10.60;99.90;;;;;;4950009;28;20042;-67
2023/08/09 04:33:49;;;;;;;0.50;0.28;;;10.50;99.90;;;;;;4951947;28;20043;-67
2023/08/09 04:36:18;;;;;;;1.05;0.43;;;10.60;99.90;;;;;;4971004;28;20035;-67
2023/08/09 04:38:45;;;;;;;1.20;0.35;;;10.60;99.90;;;;;;4950843;28;20047;-67
2023/08/09 04:41:11;;;;;;;0.45;0.20;;;10.60;99.90;;;;;;4950227;28;20491;-67
2023/08/09 04:43:42;;;;;;;0.80;0.40;;;10.60;99.90;;;;;;4952445;28;20406;-67
2023/08/09 04:46:10;;;;;;;1.73;0.52;;;10.60;99.90;;;;;;4969814;28;20039;-68
2023/08/09 04:48:39;;;;;;;0.50;0.30;;;10.60;99.90;;;;;;4952189;28;20145;-67
2023/08/09 04:51:06;;;;;;;0.55;0.32;;;10.60;99.90;;;;;;4964428;28;20117;-67
2023/08/09 04:53:32;;;;;;;1.23;0.35;;;10.70;99.90;;;;;;4953873;28;20432;-67
2023/08/09 04:55:58;;;;;;;0.90;0.43;;;10.70;99.90;;;;;;4952259;28;20043;-67
2023/08/09 04:58:24;;;;;;;0.85;0.47;;;10.80;99.90;;;;;;4950077;28;20050;-67
2023/08/09 05:00:49;;;;;;;0.30;0.20;;;10.80;99.90;;;;;;4965659;28;20053;-68
2023/08/09 05:03:15;;;;;;;0.88;0.40;;;10.90;99.90;;;;;;4966425;28;20452;-68
2023/08/09 05:05:41;;;;;;;0.93;0.52;;;10.90;99.90;;;;;;4970288;28;20034;-67
2023/08/09 05:08:07;;;;;;;0.47;0.38;;;11.00;99.90;;;;;;4946642;28;20527;-67
2023/08/09 05:10:34;;;;;;;0.93;0.55;;;11.10;99.90;;;;;;4963748;28;20138;-67
2023/08/09 05:12:59;;;;;;;0.30;0.20;;;11.20;99.90;;;;;;4950835;28;20042;-67
2023/08/09 05:15:25;;;;;;;0.85;0.57;;;11.30;99.90;;;;;;4951011;28;20102;-67
2023/08/09 05:17:51;;;;;;;1.20;0.52;;;11.40;99.90;;;;;;4966799;28;20348;-67
2023/08/09 05:20:16;;;;;;;0.47;0.25;;;11.50;99.90;;;;;;4951670;28;20125;-67
2023/08/09 05:22:42;;;;;;;0.60;0.30;;;11.70;99.90;;;;;;4953710;28;20042;-67
2023/08/09 05:25:08;;;;;;;0.38;0.30;;;11.80;99.90;;;;;;4961973;28;20034;-67
2023/08/09 05:27:34;;;;;;;2.67;0.95;;;11.90;99.90;;;;;;4965448;28;20292;-67
2023/08/09 05:29:59;;;;;;;2.65;0.45;;;12.10;99.90;;;;;;4944149;28;20046;-67
2023/08/09 05:32:25;;;;;;;0.77;0.30;;;12.20;99.90;;;;;;4968059;28;20050;-67
2023/08/09 05:34:51;;;;;;;0.60;0.38;;;12.30;99.90;;;;;;4967760;28;20472;-67
2023/08/09 05:37:17;;;;;;;0.38;0.30;;;12.40;99.90;;;;;;4965428;28;20035;-67
2023/08/09 05:39:42;;;;;;;0.60;0.30;;;12.60;99.90;;;;;;4964074;28;20280;-68
2023/08/09 05:42:08;;;;;;;0.38;0.20;;;12.60;99.90;;;;;;4967670;28;20065;-67
2023/08/09 05:44:36;;;;;;;0.20;0.20;;;12.80;99.90;;;;;;4968565;28;20177;-68
2023/08/09 05:47:02;;;;;;;0.50;0.30;;;12.90;99.90;;;;;;4965317;28;20034;-68
2023/08/09 05:49:28;;;;;;;0.63;0.30;;;13.00;99.90;;;;;;4968253;28;20391;-68
2023/08/09 05:51:54;;;;;;;0.47;0.20;;;13.10;99.90;;;;;;4967531;28;20035;-67
2023/08/09 05:54:20;;;;;;;0.52;0.30;;;13.30;99.90;;;;;;4953892;28;20696;-67
2023/08/09 05:56:46;;;;;;;0.20;0.20;;;13.40;99.90;;;;;;4946798;28;20208;-67
2023/08/09 05:59:12;;;;;;;0.20;0.13;;;13.40;99.90;;;;;;4966998;28;20045;-67
2023/08/09 06:01:38;;;;;;;0.55;0.15;;;13.40;99.90;;;;;;4951756;28;20047;-67
2023/08/09 06:04:04;;;;;;;0.28;0.20;;;13.50;99.90;;;;;;4950777;28;20050;-67
2023/08/09 06:06:29;;;;;;;0.70;0.50;;;13.60;99.90;;;;;;4967311;28;20039;-67
2023/08/09 06:08:55;;;;;;;0.50;0.30;;;13.70;99.90;;;;;;4952359;28;20490;-67
2023/08/09 06:11:21;;;;;;;1.00;0.38;;;13.80;99.90;;;;;;4968824;28;20117;-67
2023/08/09 06:13:47;;;;;;;0.52;0.20;;;13.90;99.90;;;;;;4966023;28;20047;-67
2023/08/09 06:16:12;;;;;;;0.30;0.20;;;14.00;99.90;;;;;;4967873;28;20049;-67
2023/08/09 06:18:38;;;;;;;0.22;0.20;;;14.10;99.90;;;;;;4966653;28;20031;-67
2023/08/09 06:21:06;;;;;;;0.35;0.20;;;14.20;99.90;;;;;;4952255;28;20054;-67
2023/08/09 06:23:32;;;;;;;0.50;0.20;;;14.30;99.90;;;;;;4950687;28;20043;-67
2023/08/09 06:25:58;;;;;;;0.52;0.30;;;14.30;99.90;;;;;;4965514;28;20097;-68
2023/08/09 06:28:24;;;;;;;2.75;0.10;;;14.40;99.90;;;;;;4968410;28;20038;-67
2023/08/09 06:30:50;;;;;;;0.82;0.13;;;14.50;99.90;;;;;;4968651;28;20129;-68
2023/08/09 06:33:16;;;;;;;0.50;0.13;;;14.60;99.90;;;;;;4970739;28;20035;-68
2023/08/09 06:35:42;;;;;;;0.43;0.22;;;14.70;99.90;;;;;;4950120;28;20050;-67
2023/08/09 06:38:07;;;;;;;0.45;0.15;;;14.80;99.90;;;;;;4969926;28;20559;-67
2023/08/09 06:40:33;;;;;;;0.95;0.20;;;14.90;99.90;;;;;;4952696;28;20082;-67
2023/08/09 06:42:59;;;;;;;0.20;0.10;;;15.00;99.90;;;;;;4969240;28;20114;-67
2023/08/09 06:45:25;;;;;;;0.30;0.10;;;15.10;99.90;;;;;;4969249;28;20649;-67
2023/08/09 06:47:50;;;;;;;0.20;0.10;;;15.20;99.90;;;;;;4953762;28;20035;-67
2023/08/09 06:50:16;;;;;;;0.55;0.30;;;15.30;99.90;;;;;;4969145;28;20479;-68
2023/08/09 06:52:42;;;;;;;1.35;0.82;;;15.40;99.90;;;;;;4970841;28;20118;-67
2023/08/09 06:55:09;;;;;;;0.52;0.30;;;15.40;99.90;;;;;;4953193;28;20042;-67
2023/08/09 06:57:35;;;;;;;0.40;0.10;;;15.50;99.90;;;;;;4959574;28;20101;-67
2023/08/09 07:00:05;;;;;;;0.40;0.20;;;15.60;99.90;;;;;;4952569;28;20408;-67
2023/08/09 07:02:33;;;;;;;0.17;0.10;;;15.70;99.90;;;;;;4972373;28;20118;-68
2023/08/09 07:05:08;;;;;;;0.20;0.17;;;15.80;99.90;;;;;;4955793;28;20114;-68
2023/08/09 07:07:34;;;;;;;0.20;0.10;;;15.80;99.90;;;;;;4945194;28;20402;-68
2023/08/09 07:09:59;;;;;;;0.05;0.00;;;15.90;99.90;;;;;;4967122;28;20051;-68
2023/08/09 07:12:25;;;;;;;0.13;0.10;;;16.10;99.90;;;;;;4970301;28;20038;-68
2023/08/09 07:14:51;;;;;;;0.22;0.13;;;16.20;99.90;;;;;;4969124;28;20125;-68
2023/08/09 07:17:17;;;;;;;0.43;0.30;;;16.20;99.90;;;;;;4954943;28;20105;-68
2023/08/09 07:19:43;;;;;;;0.10;0.10;;;16.30;99.90;;;;;;4970496;28;20031;-68
2023/08/09 07:22:09;;;;;;;0.25;0.10;;;16.40;99.90;;;;;;4970179;28;20094;-67
2023/08/09 07:24:34;;;;;;;0.77;0.30;;;16.50;99.90;;;;;;4945092;28;20100;-68
2023/08/09 07:27:00;;;;;;;0.10;0.10;;;16.70;99.90;;;;;;4968482;28;20462;-68
2023/08/09 07:29:26;;;;;;;0.13;0.10;;;16.80;99.90;;;;;;4969301;28;20042;-68
2023/08/09 07:31:51;;;;;;;0.50;0.10;;;16.90;99.90;;;;;;4965711;28;20142;-68
2023/08/09 07:34:17;;;;;;;0.10;0.10;;;17.00;99.90;;;;;;4967195;28;20066;-68
2023/08/09 07:36:43;;;;;;;0.10;0.10;;;17.10;99.90;;;;;;4954820;28;20046;-68
2023/08/09 07:39:09;;;;;;;0.17;0.10;;;17.20;99.90;;;;;;4971117;28;20070;-68
2023/08/09 07:41:35;;;;;;;0.20;0.10;;;17.30;99.90;;;;;;4968218;28;20062;-70
2023/08/09 07:44:01;;;;;;;0.10;0.10;;;17.40;99.90;;;;;;4948723;28;20055;-70
2023/08/09 07:46:27;;;;;;;0.57;0.17;;;17.50;99.90;;;;;;4965878;28;20034;-70
2023/08/09 07:48:53;;;;;;;0.10;0.10;;;17.50;99.90;;;;;;4966021;28;20047;-70
2023/08/09 07:51:20;;;;;;;0.63;0.28;;;17.60;99.90;;;;;;4951132;28;20050;-70
2023/08/09 07:53:46;;;;;;;0.35;0.28;;;17.60;99.90;;;;;;4951934;28;20043;-70
2023/08/09 07:56:13;;;;;;;0.10;0.10;;;17.70;99.90;;;;;;4954018;28;20422;-70
2023/08/09 07:58:39;;;;;;;0.40;0.13;;;17.80;99.90;;;;;;4950795;28;20042;-70
2023/08/09 08:01:05;;;;;;;0.40;0.10;;;17.90;99.90;;;;;;4968667;28;20565;-70
2023/08/09 08:03:31;;;;;;;0.10;0.10;;;18.00;99.90;;;;;;4969292;28;20047;-70
2023/08/09 08:05:57;;;;;;;0.65;0.25;;;18.10;99.90;;;;;;4947688;28;20078;-70
2023/08/09 08:08:23;;;;;;;0.32;0.20;;;18.20;99.90;;;;;;4965997;28;20051;-69
2023/08/09 08:10:49;;;;;;;0.30;0.10;;;18.30;99.90;;;;;;4964834;28;20130;-70
2023/08/09 08:13:15;;;;;;;0.22;0.20;;;18.30;99.90;;;;;;4971990;28;20622;-69
2023/08/09 08:15:41;;;;;;;0.40;0.20;;;18.50;99.90;;;;;;4960324;28;20121;-70
2023/08/09 08:18:08;;;;;;;0.55;0.10;;;18.60;99.90;;;;;;4972131;28;20039;-70
2023/08/09 08:20:34;;;;;;;0.10;0.00;;;18.60;99.90;;;;;;4968146;28;20039;-69
2023/08/09 08:22:59;;;;;;;0.85;0.30;;;18.70;99.90;;;;;;4972167;28;20118;-69
2023/08/09 08:25:25;;;;;;;0.00;0.00;;;18.80;99.90;;;;;;4961486;28;20166;-70
2023/08/09 08:27:51;;;;;;;0.03;0.00;;;18.90;99.90;;;;;;4968717;28;20117;-70
2023/08/09 08:30:18;;;;;;;0.17;0.00;;;18.90;99.90;;;;;;4948634;28;20047;-69
2023/08/09 08:32:49;;;;;;;0.25;0.08;;;19.00;99.90;;;;;;4954572;28;20042;-69
2023/08/09 08:35:20;;;;;;;0.20;0.10;;;19.10;99.90;;;;;;4964379;28;20049;-70
2023/08/09 08:37:46;;;;;;;0.38;0.08;;;19.30;99.90;;;;;;4969201;28;20070;-69
2023/08/09 08:40:17;;;;;;;0.57;0.10;;;19.40;99.90;;;;;;4968669;28;20121;-70
2023/08/09 08:42:44;;;;;;;0.03;0.00;;;19.60;99.90;;;;;;4967931;28;20049;-70
2023/08/09 08:45:11;;;;;;;0.00;0.00;;;19.70;99.90;;;;;;4966526;28;20073;-70
2023/08/09 08:47:41;;;;;;;0.20;0.10;;;19.70;99.90;;;;;;4966849;28;20042;-70
2023/08/09 08:50:08;;;;;;;0.47;0.05;;;19.90;99.90;;;;;;4969298;28;20499;-70
2023/08/09 08:52:38;;;;;;;0.20;0.10;;;20.10;99.90;;;;;;4953800;28;20054;-70
2023/08/09 08:55:12;;;;;;;0.15;0.00;;;20.30;99.90;;;;;;4969098;28;20051;-70
2023/08/09 08:57:39;;;;;;;0.10;0.00;;;20.50;99.90;;;;;;4944193;28;20091;-70
2023/08/09 09:00:15;;;;;;;0.40;0.10;;;20.80;99.90;;;;;;4965751;28;20043;-70
2023/08/09 09:02:45;;;;;;;0.00;0.00;;;21.00;99.90;;;;;;4962198;28;20051;-70
2023/08/09 09:05:13;;;;;;;0.28;0.00;;;21.10;99.90;;;;;;4969291;28;20042;-70
2023/08/09 09:07:41;;;;;;;0.17;0.08;;;21.10;99.90;;;;;;4951330;28;20047;-70
2023/08/09 09:10:12;;;;;;;0.30;0.10;;;21.10;99.90;;;;;;4970660;28;20448;-70
2023/08/09 09:12:41;;;;;;;0.05;0.00;;;21.30;99.90;;;;;;4953691;28;20050;-70
2023/08/09 09:15:08;;;;;;;0.00;0.00;;;21.50;99.90;;;;;;4950763;28;20439;-70
2023/08/09 09:17:44;;;;;;;0.15;0.00;;;21.60;99.90;;;;;;4966631;28;20039;-70
2023/08/09 09:20:24;;;;;;;0.10;0.00;;;21.80;99.90;;;;;;4965502;28;20054;-70
2023/08/09 09:22:53;;;;;;;0.00;0.00;;;21.70;99.90;;;;;;4963500;28;20538;-70
2023/08/09 09:25:22;;;;;;;0.00;0.00;;;21.30;99.90;;;;;;4950643;28;20080;-70
2023/08/09 09:27:51;;;;;;;0.10;0.10;;;20.90;99.90;;;;;;4969077;28;20093;-70
2023/08/09 09:30:19;;;;;;;0.00;0.00;;;20.70;99.90;;;;;;4969113;28;20058;-70
2023/08/09 09:32:51;;;;;;;0.03;0.00;;;20.80;99.90;;;;;;4964445;28;20504;-70
2023/08/09 09:35:27;;;;;;;0.08;0.08;;;20.90;99.90;;;;;;4968740;28;20050;-70
2023/08/09 09:37:55;;;;;;;0.00;0.00;;;21.30;99.90;;;;;;4978022;28;20504;-70
2023/08/09 09:40:42;;;;;;;0.00;0.00;;;21.40;99.90;;;;;;4944558;29;20062;-70
2023/08/09 09:43:10;;;;;;;0.75;0.20;;;21.60;99.90;;;;;;4949341;29;20043;-70
2023/08/09 09:45:36;;;;;;;0.00;0.00;;;21.70;99.90;;;;;;4945652;29;20050;-70
2023/08/09 09:48:02;;;;;;;0.00;0.00;;;21.80;99.90;;;;;;4962230;28;20115;-70
2023/08/09 09:50:30;;;;;;;0.32;0.00;;;22.00;99.90;;;;;;4950136;29;20131;-70
2023/08/09 09:52:57;;;;;;;0.90;0.10;;;22.20;99.90;;;;;;4946526;28;20048;-70
2023/08/09 09:55:28;;;;;;;0.00;0.00;;;22.40;99.90;;;;;;4947202;29;20046;-70
2023/08/09 09:57:56;;;;;;;0.00;0.00;;;22.70;99.90;;;;;;4946817;28;20474;-70
2023/08/09 10:00:22;;;;;;;0.03;0.00;;;23.00;99.90;;;;;;4948530;29;20114;-70
2023/08/09 10:02:49;;;;;;;0.22;0.00;;;23.20;99.90;;;;;;4949169;28;20175;-70
2023/08/09 10:05:19;;;;;;;0.00;0.00;;;23.00;97.40;;;;;;4947994;28;20439;-70
2023/08/09 10:07:46;;;;;;;1.00;0.20;;;22.90;99.90;;;;;;4950536;28;20046;-70
2023/08/09 10:10:13;;;;;;;0.00;0.00;;;22.80;99.90;;;;;;4949917;28;20066;-70
2023/08/09 10:12:43;;;;;;;1.58;0.08;;;22.70;99.90;;;;;;4950162;28;20039;-70
2023/08/09 10:15:12;;;;;;;0.10;0.00;;;22.70;99.90;;;;;;4944617;29;20440;-70
2023/08/09 10:17:40;;;;;;;0.00;0.00;;;22.60;99.90;;;;;;4950676;29;20039;-70
2023/08/09 10:20:08;;;;;;;0.05;0.00;;;22.40;99.90;;;;;;4948723;28;20476;-70
2023/08/09 10:22:34;;;;;;;0.00;0.00;;;22.20;99.90;;;;;;4950161;28;20044;-70
2023/08/09 10:25:00;;;;;;;0.00;0.00;;;22.20;99.90;;;;;;4946076;28;20057;-70
2023/08/09 10:27:53;;;;;;;0.10;0.00;;;22.30;99.90;;;;;;4950474;28;20162;-70
2023/08/09 10:30:24;;;;;;;0.05;0.00;;;22.40;99.90;;;;;;4944027;29;20125;-70
2023/08/09 10:32:57;;;;;;;0.08;0.00;;;22.30;99.90;;;;;;4945254;29;20090;-70
2023/08/09 10:35:44;;;;;;;0.00;0.00;;;22.20;99.90;;;;;;4947077;28;20043;-70
2023/08/09 10:38:19;;;;;;;0.45;0.10;;;22.20;99.90;;;;;;4949819;28;20105;-70
2023/08/09 10:40:51;;;;;;;0.88;0.00;;;22.20;99.90;;;;;;4936805;29;20060;-70
2023/08/09 10:43:19;;;;;;;0.00;0.00;;;22.00;99.90;;;;;;4947425;29;20499;-70
2023/08/09 10:45:46;;;;;;;0.10;0.00;;;22.10;99.90;;;;;;4947786;28;20082;-70
2023/08/09 10:48:25;;;;;;;0.25;0.00;;;22.00;99.90;;;;;;4947434;28;20054;-70
2023/08/09 10:51:21;;;;;;;0.05;0.00;;;22.00;99.90;;;;;;4944969;28;20445;-70
2023/08/09 10:53:58;;;;;;;0.00;0.00;;;22.00;99.90;;;;;;4938680;28;20051;-70
2023/08/09 10:56:38;;;;;;;0.00;0.00;;;22.10;99.90;;;;;;4948204;29;20035;-70
2023/08/09 10:59:27;;;;;;;0.38;0.10;;;22.20;99.90;;;;;;4945513;29;20047;-70
2023/08/09 11:01:54;;;;;;;0.10;0.00;;;22.30;99.90;;;;;;4939840;28;20134;-70
2023/08/09 11:04:20;;;;;;;0.05;0.00;;;22.40;99.90;;;;;;4947114;29;20496;-70
2023/08/09 11:06:50;;;;;;;0.00;0.00;;;22.30;99.90;;;;;;4949470;28;20050;-70
2023/08/09 11:09:17;;;;;;;0.55;0.00;;;22.30;99.90;;;;;;4948030;28;20035;-70
2023/08/09 11:11:43;;;;;;;0.35;0.00;;;22.50;99.90;;;;;;4939901;28;20075;-70
2023/08/09 11:14:10;;;;;;;0.00;0.00;;;22.60;99.90;;;;;;4944874;29;20050;-71
2023/08/09 11:16:37;;;;;;;0.05;0.00;;;22.60;99.90;;;;;;4948701;28;20437;-70
2023/08/09 11:19:04;;;;;;;0.00;0.00;;;22.80;99.90;;;;;;4952005;28;20056;-70
2023/08/09 11:21:54;;;;;;;0.10;0.00;;;23.40;99.90;;;;;;4944780;29;20083;-71
2023/08/09 11:24:22;;;;;;;0.05;0.00;;;23.90;97.00;;;;;;4952758;28;20099;-71
2023/08/09 11:26:56;;;;;;;0.05;0.00;;;24.40;99.50;;;;;;4953514;29;20592;-70
2023/08/09 11:29:24;;;;;;;0.00;0.00;;;24.80;99.90;;;;;;4952142;29;20159;-71
2023/08/09 11:31:52;;;;;;;0.10;0.00;;;25.10;99.90;;;;;;4942192;29;20056;-71
2023/08/09 11:34:20;;;;;;;0.10;0.00;;;25.20;99.90;;;;;;4953606;29;20106;-71
2023/08/09 11:36:47;;;;;;;0.13;0.00;;;25.20;99.90;;;;;;4943208;29;20039;-70
2023/08/09 11:39:14;;;;;;;0.00;0.00;;;24.90;99.90;;;;;;4955361;28;20059;-70
2023/08/09 11:41:50;;;;;;;0.10;0.00;;;24.60;99.90;;;;;;4963912;28;20055;-71
2023/08/09 11:44:20;;;;;;;0.00;0.00;;;24.70;99.90;;;;;;4969747;28;20074;-71
2023/08/09 11:46:46;;;;;;;0.17;0.00;;;24.80;99.90;;;;;;4964842;28;20038;-71
2023/08/09 11:49:12;;;;;;;0.10;0.00;;;24.70;99.90;;;;;;4970517;28;20049;-70
2023/08/09 11:51:37;;;;;;;0.30;0.00;;;24.60;99.70;;;;;;4966924;28;20069;-71
2023/08/09 11:54:07;;;;;;;0.00;0.00;;;24.10;99.90;;;;;;4972325;28;20042;-71
2023/08/09 11:56:35;;;;;;;0.20;0.00;;;23.40;99.90;;;;;;4969343;28;20134;-70
2023/08/09 11:59:02;;;;;;;0.00;0.00;;;22.90;99.90;;;;;;4964568;28;20027;-71
2023/08/09 12:01:31;;;;;;;0.00;0.00;;;22.40;99.90;;;;;;4948180;28;20050;-70
2023/08/09 12:04:04;;;;;;;0.00;0.00;;;22.20;99.90;;;;;;4971940;28;20458;-70
2023/08/09 12:06:40;;;;;;;0.20;0.00;;;22.50;99.90;;;;;;4972576;28;20073;-70
2023/08/09 12:09:31;;;;;;;0.00;0.00;;;23.30;99.90;;;;;;4965867;28;22314;-70
2023/08/09 12:12:35;;;;;;;0.10;0.00;;;23.90;99.90;;;;;;4971986;28;20086;-70
2023/08/09 12:15:01;;;;;;;0.00;0.00;;;23.70;90.70;;;;;;4967085;28;20451;-70
2023/08/09 12:17:28;;;;;;;0.00;0.00;;;23.50;99.90;;;;;;4949196;28;20075;-70
2023/08/09 12:19:56;;;;;;;0.10;0.05;;;23.40;97.00;;;;;;4983183;28;20058;-70
2023/08/09 12:22:22;;;;;;;0.00;0.00;;;23.40;94.00;;;;;;4955176;28;20089;-70
2023/08/09 12:24:48;;;;;;;0.25;0.08;;;23.70;99.90;;;;;;4969606;28;20043;-71
2023/08/09 12:27:15;;;;;;;0.30;0.10;;;23.40;97.00;;;;;;4967438;28;20038;-71
2023/08/09 12:29:42;;;;;;;0.47;0.10;;;22.80;99.90;;;;;;4967656;28;20125;-70
2023/08/09 12:32:08;;;;;;;0.52;0.20;;;22.40;99.90;;;;;;4953905;28;20081;-70
2023/08/09 12:34:33;;;;;;;0.10;0.10;;;21.90;98.90;;;;;;4950886;28;20471;-70
2023/08/09 12:36:59;;;;;;;0.10;0.10;;;21.50;99.90;;;;;;4968139;28;20101;-70
2023/08/09 12:39:26;;;;;;;0.20;0.00;;;21.40;99.90;;;;;;4969369;28;20399;-70
2023/08/09 12:41:53;;;;;;;0.75;0.00;;;21.40;99.90;;;;;;4953049;28;20050;-71
2023/08/09 12:44:19;;;;;;;0.00;0.00;;;21.60;99.90;;;;;;4968196;28;20038;-70
2023/08/09 12:46:44;;;;;;;0.10;0.00;;;22.40;99.90;;;;;;4968112;28;20258;-70
2023/08/09 12:49:10;;;;;;;0.00;0.00;;;23.10;99.90;;;;;;4943072;28;20563;-70
2023/08/09 12:51:38;;;;;;;0.15;0.08;;;23.40;99.90;;;;;;4963968;28;20042;-71